Baton, North Carolina
Current Conditions -  °F | °C
As of 5:53 AM on Saturday 25 Oct 2014 (Local Time) from KHKY Reporting Station
Clear Clear  
Wind Chill: 40°   Ceiling: Unl
Heat Index: 44°   Visibility: 10mi
Dew Point: 40°   Wind: 7mph
Humidity: 85%   Direction: 310°NW
Pressure: 30.02"   Gusts: NA
Location:  35.83°N, 81.4147°W
Report Text: KHKY 250953Z AUTO 31006KT 10SM CLR 07/04 A3002 RMK AO2 SLP152 T00670044
Loading
Personal Weather Stations






























Interactive Weather Map
Tropical Storm Tracking
New forecast layout! Learn more

10-Day Weather Forecast

Advertisements
Track Severe Weather on mobile